Time;durP1;ratioP1;P1;durP2;ratioP2;P2;SDS_P1;SDS_P2;PMS_P1;PMS_P2;Temp;Humidity;BMP_temperature;BMP_pressure;BME280_temperature;BME280_humidity;BME280_pressure;Samples;Min_cycle;Max_cycle;Signal;HPM_P1;HPM_P2
2023/07/24 00:00:40;;;;;;;;;;;;;;;29.02;39.96;100891.84;5091536;28;1038;-25
2023/07/24 00:03:05;;;;;;;;;;;;;;;29.03;39.97;100890.00;5088093;28;1173;-25
2023/07/24 00:05:31;;;;;;;;;;;;;;;29.00;40.14;100893.06;5078321;28;936;-23
2023/07/24 00:07:56;;;;;;;;;;;;;;;28.95;40.37;100889.03;5078273;28;1047;-22
2023/07/24 00:10:22;;;;;;;;;;;;;;;29.00;40.04;100888.50;5091717;28;1238;-23
2023/07/24 00:12:47;;;;;;;;;;;;;;;29.03;39.84;100874.56;5077960;28;1974;-24
2023/07/24 00:15:13;;;;;;;;;;;;;;;29.01;39.85;100884.75;5078005;28;957;-23
2023/07/24 00:17:38;;;;;;;;;;;;;;;28.91;40.43;100882.31;5077914;28;1199;-26
2023/07/24 00:20:04;;;;;;;;;;;;;;;28.96;40.11;100882.59;5077818;28;1114;-22
2023/07/24 00:22:29;;;;;;;;;;;;;;;28.99;40.25;100878.69;5086891;28;1225;-24
2023/07/24 00:24:55;;;;;;;;;;;;;;;29.18;39.50;100879.91;5084385;28;1098;-22
2023/07/24 00:27:20;;;;;;;;;;;;;;;29.07;39.40;100875.88;5097461;28;1199;-22
2023/07/24 00:29:46;;;;;;;;;;;;;;;29.00;39.94;100879.53;5082776;28;1512;-26
2023/07/24 00:32:11;;;;;;;;;;;;;;;29.04;39.93;100886.25;5087442;28;1911;-25
2023/07/24 00:34:37;;;;;;;;;;;;;;;29.01;40.22;100884.75;5076139;28;1078;-25
2023/07/24 00:37:03;;;;;;;;;;;;;;;28.99;39.95;100881.41;5075745;28;1059;-25
2023/07/24 00:39:29;;;;;;;;;;;;;;;29.01;39.83;100873.09;5089749;28;1358;-23
2023/07/24 00:41:56;;;;;;;;;;;;;;;29.01;39.93;100881.22;5086222;28;1185;-26
2023/07/24 00:44:21;;;;;;;;;;;;;;;28.95;39.96;100872.78;5097659;28;1045;-23
2023/07/24 00:46:47;;;;;;;;;;;;;;;28.94;40.00;100876.53;5097921;28;1133;-23
2023/07/24 00:49:12;;;;;;;;;;;;;;;28.96;39.97;100876.34;5096191;28;1202;-24
2023/07/24 00:51:38;;;;;;;;;;;;;;;29.03;39.84;100874.56;5096159;28;1910;-26
2023/07/24 00:54:03;;;;;;;;;;;;;;;28.96;40.00;100870.94;5083993;28;1249;-25
2023/07/24 00:56:29;;;;;;;;;;;;;;;29.01;39.83;100878.50;5086574;28;1109;-27
2023/07/24 00:58:55;;;;;;;;;;;;;;;29.07;39.68;100875.88;5077312;28;1178;-24
2023/07/24 01:01:21;;;;;;;;;;;;;;;29.08;39.85;100871.25;5087287;28;1133;-23
2023/07/24 01:03:46;;;;;;;;;;;;;;;28.96;40.24;100871.75;5094352;28;1095;-27
2023/07/24 01:06:12;;;;;;;;;;;;;;;29.03;39.93;100874.56;5086706;28;1181;-24
2023/07/24 01:08:37;;;;;;;;;;;;;;;28.98;39.72;100874.31;5081257;28;1159;-27
2023/07/24 01:11:09;;;;;;;;;;;;;;;28.87;40.21;100872.91;5096668;28;1910;-24
2023/07/24 01:13:37;;;;;;;;;;;;;;;28.95;39.81;100870.09;5094858;28;1108;-22
2023/07/24 01:16:08;;;;;;;;;;;;;;;29.01;39.86;100864.97;5075553;28;1287;-23
2023/07/24 01:18:34;;;;;;;;;;;;;;;29.00;40.21;100871.41;5075351;28;1169;-24
2023/07/24 01:21:00;;;;;;;;;;;;;;;29.00;39.76;100864.13;5076739;28;1118;-24
2023/07/24 01:23:44;;;;;;;;;;;;;;;28.90;40.05;100867.13;5076913;28;1133;-28
2023/07/24 01:26:09;;;;;;;;;;;;;;;28.95;40.03;100861.13;5087654;28;1283;-23
2023/07/24 01:28:34;;;;;;;;;;;;;;;28.88;40.17;100860.22;5081992;28;1178;-23
2023/07/24 01:31:00;;;;;;;;;;;;;;;28.96;39.58;100862.81;5096704;28;1972;-23
2023/07/24 01:33:25;;;;;;;;;;;;;;;28.94;39.92;100870.28;5077891;28;1130;-26
2023/07/24 01:35:53;;;;;;;;;;;;;;;28.91;39.57;100871.50;5087227;28;1128;-25
2023/07/24 01:38:18;;;;;;;;;;;;;;;29.07;39.74;100864.19;5083542;28;1279;-25
2023/07/24 01:40:44;;;;;;;;;;;;;;;28.98;39.82;100865.34;5095221;28;1086;-23
2023/07/24 01:43:09;;;;;;;;;;;;;;;28.96;40.01;100876.34;5096327;28;1150;-22
2023/07/24 01:45:35;;;;;;;;;;;;;;;28.97;40.01;100872.63;5096638;28;1105;-24
2023/07/24 01:48:02;;;;;;;;;;;;;;;28.97;39.74;100872.63;5096260;28;1086;-22
2023/07/24 01:50:27;;;;;;;;;;;;;;;28.94;40.08;100868.44;5096457;28;1133;-23
2023/07/24 01:52:52;;;;;;;;;;;;;;;28.97;39.93;100861.81;5083086;28;1917;-23
2023/07/24 01:55:18;;;;;;;;;;;;;;;28.92;40.10;100870.47;5096301;28;1059;-26
2023/07/24 01:57:43;;;;;;;;;;;;;;;28.86;40.50;100863.13;5083110;28;1012;-26
2023/07/24 02:00:09;;;;;;;;;;;;;;;28.94;40.12;100868.44;5083059;28;1348;-26
2023/07/24 02:02:35;;;;;;;;;;;;;;;28.90;40.21;100871.69;5088473;28;1172;-27
2023/07/24 02:05:00;;;;;;;;;;;;;;;28.82;40.16;100864.53;5088019;28;1141;-24
2023/07/24 02:07:26;;;;;;;;;;;;;;;28.85;40.35;100873.13;5096054;28;1104;-28
2023/07/24 02:09:51;;;;;;;;;;;;;;;28.89;39.98;100870.03;5084407;28;1254;-22
2023/07/24 02:12:17;;;;;;;;;;;;;;;28.85;40.00;100873.13;5094740;28;1987;-25
2023/07/24 02:14:42;;;;;;;;;;;;;;;28.84;40.10;100881.44;5083143;28;1141;-22
2023/07/24 02:17:10;;;;;;;;;;;;;;;28.84;40.35;100886.84;5079326;28;1131;-23
2023/07/24 02:19:35;;;;;;;;;;;;;;;28.93;40.29;100885.69;5094476;28;1161;-23
2023/07/24 02:22:01;;;;;;;;;;;;;;;28.91;40.06;100887.72;5082841;28;1103;-24
2023/07/24 02:24:26;;;;;;;;;;;;;;;28.81;40.30;100887.22;5088152;28;1071;-22
2023/07/24 02:26:51;;;;;;;;;;;;;;;28.85;40.24;100893.94;5097764;28;1065;-23
2023/07/24 02:29:17;;;;;;;;;;;;;;;28.92;40.26;100892.13;5088941;28;1122;-28
2023/07/24 02:31:42;;;;;;;;;;;;;;;28.92;40.27;100885.88;5097461;28;1901;-23
2023/07/24 02:34:08;;;;;;;;;;;;;;;28.95;40.09;100899.03;5095468;28;952;-24
2023/07/24 02:36:34;;;;;;;;;;;;;;;28.91;40.06;100892.34;5095597;28;1133;-24
2023/07/24 02:39:01;;;;;;;;;;;;;;;28.80;40.33;100896.38;5091501;28;1201;-24
2023/07/24 02:41:26;;;;;;;;;;;;;;;28.88;39.99;100882.72;5085816;28;1150;-22
2023/07/24 02:43:52;;;;;;;;;;;;;;;28.89;40.05;100883.56;5100035;28;1058;-22
2023/07/24 02:46:18;;;;;;;;;;;;;;;28.93;39.86;100882.97;5094420;28;1154;-23
2023/07/24 02:48:43;;;;;;;;;;;;;;;28.90;39.95;100874.38;5089700;28;1154;-22
2023/07/24 02:51:09;;;;;;;;;;;;;;;28.98;39.81;100885.13;5099675;28;1902;-22
2023/07/24 02:53:34;;;;;;;;;;;;;;;28.95;40.02;100875.50;5088600;28;1122;-23
2023/07/24 02:56:01;;;;;;;;;;;;;;;28.93;39.98;100876.72;5092842;28;1146;-25
2023/07/24 02:58:26;;;;;;;;;;;;;;;28.90;39.86;100871.69;5078411;28;1182;-26
2023/07/24 03:00:52;;;;;;;;;;;;;;;28.80;40.24;100872.00;5082941;28;1111;-23
2023/07/24 03:03:17;;;;;;;;;;;;;;;28.84;40.13;100873.31;5099542;28;1118;-26
2023/07/24 03:05:43;;;;;;;;;;;;;;;28.79;40.17;100870.34;5098834;28;1167;-25
2023/07/24 03:08:08;;;;;;;;;;;;;;;28.73;40.32;100872.78;5088676;28;1078;-22
2023/07/24 03:10:34;;;;;;;;;;;;;;;28.84;39.99;100866.00;5095649;28;1258;-24
2023/07/24 03:12:59;;;;;;;;;;;;;;;28.85;40.15;100873.13;5086511;28;1917;-23
2023/07/24 03:15:25;;;;;;;;;;;;;;;28.95;40.04;100864.66;5092527;28;1055;-22
2023/07/24 03:17:51;;;;;;;;;;;;;;;28.86;40.01;100865.84;5078575;28;1364;-24
2023/07/24 03:20:17;;;;;;;;;;;;;;;28.80;39.91;100863.88;5096269;28;1179;-22
2023/07/24 03:22:42;;;;;;;;;;;;;;;28.85;39.82;100866.84;5098996;28;1042;-21
2023/07/24 03:25:08;;;;;;;;;;;;;;;28.91;39.24;100865.25;5085637;28;1083;-22
2023/07/24 03:27:33;;;;;;;;;;;;;;;28.81;40.26;100868.28;5099012;28;1037;-26
2023/07/24 03:29:59;;;;;;;;;;;;;;;28.55;41.52;100862.38;5093580;28;998;-24
2023/07/24 03:32:25;;;;;;;;;;;;;;;28.33;42.53;100864.16;5097814;28;1975;-24
2023/07/24 03:34:50;;;;;;;;;;;;;;;28.09;42.94;100861.53;5085454;28;1142;-26
2023/07/24 03:37:16;;;;;;;;;;;;;;;28.11;43.23;100864.91;5098523;28;1126;-25
2023/07/24 03:39:41;;;;;;;;;;;;;;;28.06;43.36;100871.91;5099686;28;1094;-26
2023/07/24 03:42:09;;;;;;;;;;;;;;;28.20;42.84;100872.91;5097630;28;1188;-27
2023/07/24 03:44:34;;;;;;;;;;;;;;;27.31;45.80;100873.44;5098965;28;1074;-26
2023/07/24 03:47:00;;;;;;;;;;;;;;;26.50;48.11;100872.75;5085393;28;1197;-30
2023/07/24 03:49:25;;;;;;;;;;;;;;;26.70;47.40;100866.91;5085747;28;1138;-29
2023/07/24 03:51:51;;;;;;;;;;;;;;;26.72;47.14;100875.66;5098678;28;1984;-28
2023/07/24 03:54:16;;;;;;;;;;;;;;;27.18;46.09;100884.00;5086473;28;1133;-23
2023/07/24 03:56:42;;;;;;;;;;;;;;;27.95;44.24;100889.44;5091670;28;1207;-23
2023/07/24 03:59:07;;;;;;;;;;;;;;;28.17;43.85;100884.13;5090820;28;1125;-22
2023/07/24 04:01:33;;;;;;;;;;;;;;;27.60;40.83;100892.59;5078862;28;1076;-23
2023/07/24 04:03:58;;;;;;;;;;;;;;;28.06;42.95;100899.78;5078626;28;1141;-23
2023/07/24 04:06:24;;;;;;;;;;;;;;;28.23;43.06;100900.44;5082752;28;1169;-21
2023/07/24 04:08:49;;;;;;;;;;;;;;;28.26;43.28;100907.31;5081962;28;1225;-23
2023/07/24 04:11:15;;;;;;;;;;;;;;;27.64;43.04;100785.84;5090945;28;1909;-22
2023/07/24 04:13:40;;;;;;;;;;;;;;;28.42;43.16;100911.75;5092520;28;1125;-22
2023/07/24 04:16:06;;;;;;;;;;;;;;;28.52;43.16;100914.16;5089450;28;1196;-20
2023/07/24 04:18:31;;;;;;;;;;;;;;;28.18;43.55;100910.13;5085753;28;1181;-22
2023/07/24 04:20:57;;;;;;;;;;;;;;;27.99;44.42;100910.50;5089753;28;1174;-21
2023/07/24 04:23:22;;;;;;;;;;;;;;;26.85;47.00;100912.88;5092059;28;1026;-24
2023/07/24 04:25:51;;;;;;;;;;;;;;;27.64;45.02;100904.75;5077311;28;1103;-23
2023/07/24 04:28:16;;;;;;;;;;;;;;;27.26;46.25;100909.09;5096454;28;1192;-22
2023/07/24 04:30:42;;;;;;;;;;;;;;;26.83;48.03;100906.81;5085198;28;911;-23
2023/07/24 04:33:07;;;;;;;;;;;;;;;26.87;47.90;100908.16;5091144;28;1902;-21
2023/07/24 04:35:33;;;;;;;;;;;;;;;27.63;45.93;100913.84;5077323;28;1046;-23
2023/07/24 04:37:59;;;;;;;;;;;;;;;27.88;44.79;100905.53;5096607;28;1209;-24
2023/07/24 04:40:24;;;;;;;;;;;;;;;27.35;46.93;100903.63;5097441;28;1102;-24
2023/07/24 04:42:50;;;;;;;;;;;;;;;28.02;44.72;100908.44;5078887;28;1200;-21
2023/07/24 04:45:15;;;;;;;;;;;;;;;28.16;44.76;100906.78;5076791;28;1035;-24
2023/07/24 04:47:41;;;;;;;;;;;;;;;28.14;44.90;100906.13;5090465;28;1244;-22
2023/07/24 04:50:07;;;;;;;;;;;;;;;27.97;45.93;100909.84;5089890;28;1221;-23
2023/07/24 04:52:33;;;;;;;;;;;;;;;28.26;44.12;100910.03;5083785;28;1898;-23
2023/07/24 04:54:58;;;;;;;;;;;;;;;28.38;45.01;100910.44;5096514;28;889;-22
2023/07/24 04:57:23;;;;;;;;;;;;;;;27.82;47.29;100904.44;5083436;28;1205;-22
2023/07/24 04:59:49;;;;;;;;;;;;;;;28.34;44.56;100909.97;5096857;28;1102;-22
2023/07/24 05:02:14;;;;;;;;;;;;;;;28.06;46.54;100909.78;5091846;28;1125;-22
2023/07/24 05:04:41;;;;;;;;;;;;;;;27.72;48.03;100914.66;5089580;28;1082;-22
2023/07/24 05:07:06;;;;;;;;;;;;;;;28.02;46.27;100916.56;5094409;28;1054;-22
2023/07/24 05:09:32;;;;;;;;;;;;;;;27.97;47.29;100925.22;5086094;28;1055;-22
2023/07/24 05:11:57;;;;;;;;;;;;;;;27.98;47.59;100916.94;5083833;28;1975;-22
2023/07/24 05:14:23;;;;;;;;;;;;;;;28.25;47.04;100927.31;5087705;28;1407;-23
2023/07/24 05:16:48;;;;;;;;;;;;;;;28.26;46.61;100928.16;5076507;28;1066;-21
2023/07/24 05:19:14;;;;;;;;;;;;;;;28.20;46.29;100933.28;5081557;28;914;-22
2023/07/24 05:21:39;;;;;;;;;;;;;;;28.03;47.63;100929.91;5090135;28;1167;-21
2023/07/24 05:24:05;;;;;;;;;;;;;;;27.95;48.06;100921.88;5085690;28;1131;-22
2023/07/24 05:26:30;;;;;;;;;;;;;;;28.16;47.78;100923.03;5096546;28;1070;-23
2023/07/24 05:28:56;;;;;;;;;;;;;;;28.27;47.24;100921.69;5090141;28;1429;-23
2023/07/24 05:31:21;;;;;;;;;;;;;;;27.90;48.29;100925.13;5090943;28;1996;-24
2023/07/24 05:33:47;;;;;;;;;;;;;;;27.85;48.52;100922.13;5090769;28;1042;-22
2023/07/24 05:36:13;;;;;;;;;;;;;;;28.20;47.73;100917.03;5076203;28;1144;-25
2023/07/24 05:38:39;;;;;;;;;;;;;;;28.55;46.49;100911.06;5076878;28;1043;-21
2023/07/24 05:41:04;;;;;;;;;;;;;;;28.42;46.78;100913.59;5089011;28;1194;-22
2023/07/24 05:43:30;;;;;;;;;;;;;;;28.26;47.98;100915.44;5090036;28;1530;-20
2023/07/24 05:45:56;;;;;;;;;;;;;;;28.59;47.48;100914.25;5088826;28;1091;-21
2023/07/24 05:48:22;;;;;;;;;;;;;;;28.98;45.73;100909.50;5089246;28;1042;-22
2023/07/24 05:50:47;;;;;;;;;;;;;;;28.99;45.78;100918.47;5089776;28;1113;-22
2023/07/24 05:53:13;;;;;;;;;;;;;;;28.96;46.04;100912.38;5076020;28;1999;-22
2023/07/24 05:55:38;;;;;;;;;;;;;;;29.14;45.71;100908.44;5088975;28;891;-23
2023/07/24 05:58:04;;;;;;;;;;;;;;;29.24;45.49;100910.81;5088978;28;1064;-21
2023/07/24 06:00:29;;;;;;;;;;;;;;;29.20;45.38;100912.22;5089994;28;1046;-22
2023/07/24 06:02:55;;;;;;;;;;;;;;;29.31;45.86;100917.13;5083122;28;1201;-22
2023/07/24 06:05:20;;;;;;;;;;;;;;;29.43;44.15;100909.31;5082915;28;1157;-21
2023/07/24 06:07:46;;;;;;;;;;;;;;;29.39;44.28;100907.19;5088112;28;1189;-23
2023/07/24 06:10:12;;;;;;;;;;;;;;;29.46;44.83;100905.41;5090789;28;1046;-21
2023/07/24 06:12:37;;;;;;;;;;;;;;;29.35;45.13;100901.31;5088381;28;1978;-23
2023/07/24 06:15:03;;;;;;;;;;;;;;;29.34;44.50;100903.19;5089925;28;1129;-26
2023/07/24 06:17:28;;;;;;;;;;;;;;;29.53;43.65;100903.56;5095968;28;1520;-25
2023/07/24 06:19:54;;;;;;;;;;;;;;;29.65;44.39;100903.91;5082065;28;960;-23
2023/07/24 06:22:19;;;;;;;;;;;;;;;29.52;44.52;100901.91;5096901;28;1078;-23
2023/07/24 06:24:45;;;;;;;;;;;;;;;29.46;44.39;100899.97;5079362;28;1028;-24
2023/07/24 06:27:10;;;;;;;;;;;;;;;29.64;44.26;100899.53;5095767;28;1121;-22
2023/07/24 06:29:36;;;;;;;;;;;;;;;29.72;44.06;100903.09;5095791;28;1109;-24
2023/07/24 06:32:01;;;;;;;;;;;;;;;29.58;44.08;100901.09;5095448;28;1981;-24
2023/07/24 06:34:27;;;;;;;;;;;;;;;29.49;43.94;100891.44;5082733;28;1201;-24
2023/07/24 06:36:52;;;;;;;;;;;;;;;29.79;43.39;100891.28;5088577;28;1109;-24
2023/07/24 06:39:18;;;;;;;;;;;;;;;29.69;43.09;100888.09;5076269;28;1197;-24
2023/07/24 06:41:44;;;;;;;;;;;;;;;29.76;43.00;100890.84;5089262;28;1201;-26
2023/07/24 06:44:09;;;;;;;;;;;;;;;29.76;42.64;100885.41;5088910;28;920;-23
2023/07/24 06:46:35;;;;;;;;;;;;;;;29.79;42.18;100888.56;5082494;28;1232;-24
2023/07/24 06:49:00;;;;;;;;;;;;;;;29.84;42.30;100889.84;5095391;28;1019;-22
2023/07/24 06:51:26;;;;;;;;;;;;;;;29.76;42.18;100883.53;5087149;28;1979;-23
2023/07/24 06:53:51;;;;;;;;;;;;;;;29.93;41.87;100885.94;5095530;28;1191;-22
2023/07/24 06:56:17;;;;;;;;;;;;;;;29.88;42.09;100883.00;5092348;28;1264;-22
2023/07/24 06:58:43;;;;;;;;;;;;;;;29.90;41.92;100881.75;5089467;28;1764;-23
2023/07/24 07:01:08;;;;;;;;;;;;;;;29.84;41.77;100879.00;5088235;28;1010;-22
2023/07/24 07:03:37;;;;;;;;;;;;;;;29.88;40.93;100881.09;5094785;28;1182;-23
2023/07/24 07:06:02;;;;;;;;;;;;;;;30.03;40.56;100877.47;5081867;28;1058;-22
2023/07/24 07:08:29;;;;;;;;;;;;;;;30.07;39.52;100878.72;5080881;28;942;-22
2023/07/24 07:10:57;;;;;;;;;;;;;;;30.04;39.84;100877.25;5085190;28;1047;-24
2023/07/24 07:13:23;;;;;;;;;;;;;;;30.06;39.11;100874.34;5084780;28;1991;-22
2023/07/24 07:15:48;;;;;;;;;;;;;;;30.02;39.20;100873.91;5085897;28;1541;-23
2023/07/24 07:18:14;;;;;;;;;;;;;;;29.96;39.54;100868.44;5098410;28;1058;-24
2023/07/24 07:20:44;;;;;;;;;;;;;;;30.05;37.88;100878.06;5096385;28;1374;-23
2023/07/24 07:23:10;;;;;;;;;;;;;;;30.14;37.47;100870.63;5085104;28;1034;-23
2023/07/24 07:25:35;;;;;;;;;;;;;;;29.99;37.81;100868.88;5099019;28;1054;-24
2023/07/24 07:28:01;;;;;;;;;;;;;;;30.15;37.22;100869.56;5085537;28;1158;-23
2023/07/24 07:30:26;;;;;;;;;;;;;;;30.12;37.69;100859.13;5097524;28;915;-24
2023/07/24 07:32:51;;;;;;;;;;;;;;;30.22;37.03;100864.22;5098005;28;1985;-22
2023/07/24 07:35:17;;;;;;;;;;;;;;;30.26;37.01;100851.94;5085046;28;1082;-25
2023/07/24 07:37:43;;;;;;;;;;;;;;;30.22;36.79;100854.19;5098044;28;1128;-24
2023/07/24 07:40:09;;;;;;;;;;;;;;;30.19;36.66;100855.41;5085421;28;1036;-22
2023/07/24 07:42:34;;;;;;;;;;;;;;;30.02;37.27;100854.06;5085185;28;1137;-21
2023/07/24 07:45:00;;;;;;;;;;;;;;;30.09;37.27;100852.25;5098769;28;953;-23
2023/07/24 07:47:25;;;;;;;;;;;;;;;30.31;36.55;100846.72;5098676;28;1090;-22
2023/07/24 07:49:51;;;;;;;;;;;;;;;30.36;36.37;100837.97;5086110;28;1386;-21
2023/07/24 07:52:17;;;;;;;;;;;;;;;30.30;36.36;100836.91;5083927;28;1978;-23
2023/07/24 07:54:49;;;;;;;;;;;;;;;30.35;36.31;100823.56;5077123;28;979;-21
2023/07/24 07:57:14;;;;;;;;;;;;;;;30.29;36.25;100827.94;5077735;28;1035;-24
2023/07/24 07:59:40;;;;;;;;;;;;;;;30.57;35.59;100819.88;5078277;28;1075;-22
2023/07/24 08:02:05;;;;;;;;;;;;;;;30.60;36.04;100822.16;5077205;28;1494;-23
2023/07/24 08:04:31;;;;;;;;;;;;;;;30.70;35.77;100828.03;5084991;28;1007;-25
2023/07/24 08:06:56;;;;;;;;;;;;;;;30.57;36.04;100830.72;5084407;28;1085;-24
2023/07/24 08:09:23;;;;;;;;;;;;;;;30.65;35.73;100830.53;5097182;28;1049;-23
2023/07/24 08:11:49;;;;;;;;;;;;;;;30.62;36.19;100823.66;5098053;28;1968;-25
2023/07/24 08:14:15;;;;;;;;;;;;;;;30.91;35.80;100837.09;5090040;28;1065;-22
2023/07/24 08:16:40;;;;;;;;;;;;;;;31.15;34.51;100834.81;5090944;28;1020;-23
2023/07/24 08:19:06;;;;;;;;;;;;;;;30.78;35.49;100827.84;5085281;28;1193;-23
2023/07/24 08:21:31;;;;;;;;;;;;;;;30.97;35.17;100830.00;5082414;28;1101;-24
2023/07/24 08:23:57;;;;;;;;;;;;;;;30.98;35.06;100835.22;5077866;28;1178;-23
2023/07/24 08:26:25;;;;;;;;;;;;;;;30.89;35.59;100822.88;5080272;28;1268;-25
2023/07/24 08:28:51;;;;;;;;;;;;;;;30.84;35.25;100828.09;5090959;28;1052;-23
2023/07/24 08:31:17;;;;;;;;;;;;;;;26.64;43.94;100816.34;5094831;28;1979;-22
2023/07/24 08:33:42;;;;;;;;;;;;;;;23.35;46.92;100813.59;5094964;28;1024;-22
2023/07/24 08:36:08;;;;;;;;;;;;;;;22.32;49.11;100802.16;5077643;28;984;-21
2023/07/24 08:38:37;;;;;;;;;;;;;;;22.46;52.72;100808.84;5077285;28;1198;-21
2023/07/24 08:41:06;;;;;;;;;;;;;;;22.53;53.52;100802.88;5082581;28;1403;-22
2023/07/24 08:43:31;;;;;;;;;;;;;;;22.26;54.71;100792.03;5096748;28;1026;-23
2023/07/24 08:45:57;;;;;;;;;;;;;;;22.07;55.25;100784.94;5084525;28;1305;-21
2023/07/24 08:48:22;;;;;;;;;;;;;;;21.95;55.83;100787.81;5084389;28;928;-22
2023/07/24 08:50:48;;;;;;;;;;;;;;;21.87;56.10;100788.53;5083698;28;1307;-21
2023/07/24 08:53:13;;;;;;;;;;;;;;;21.74;56.45;100788.84;5088308;28;1906;-22
2023/07/24 08:55:39;;;;;;;;;;;;;;;21.52;56.69;100795.38;5094893;28;1273;-22
2023/07/24 08:58:06;;;;;;;;;;;;;;;21.51;56.94;100789.19;5096092;28;1288;-23
2023/07/24 09:00:32;;;;;;;;;;;;;;;21.44;57.38;100785.38;5096650;28;1339;-24
2023/07/24 09:02:57;;;;;;;;;;;;;;;21.27;57.57;100785.13;5097346;28;1308;-22
2023/07/24 09:05:23;;;;;;;;;;;;;;;21.21;57.85;100793.72;5096426;28;1402;-25
2023/07/24 09:07:48;;;;;;;;;;;;;;;21.20;57.93;100791.19;5089072;28;1387;-24
2023/07/24 09:10:14;;;;;;;;;;;;;;;21.15;58.19;100794.31;5095607;28;1419;-25
2023/07/24 09:12:41;;;;;;;;;;;;;;;21.14;58.34;100788.09;5095256;28;1905;-21
2023/07/24 09:15:07;;;;;;;;;;;;;;;21.12;58.61;100782.03;5094038;28;1346;-22
2023/07/24 09:17:32;;;;;;;;;;;;;;;22.24;59.46;100781.47;5095605;28;1483;-23
2023/07/24 09:19:58;;;;;;;;;;;;;;;25.47;47.71;100780.84;5096166;28;1438;-23
2023/07/24 09:22:23;;;;;;;;;;;;;;;21.72;55.80;100779.28;5096416;28;1397;-21
2023/07/24 09:24:52;;;;;;;;;;;;;;;20.98;56.50;100782.47;5095656;28;1506;-22
2023/07/24 09:27:18;;;;;;;;;;;;;;;20.62;56.70;100783.00;5095086;28;1335;-24
2023/07/24 09:29:43;;;;;;;;;;;;;;;20.68;58.27;100788.63;5089890;28;1351;-22
2023/07/24 09:32:31;;;;;;;;;;;;;;;20.67;58.74;100778.91;5084121;28;1980;-22
2023/07/24 09:34:56;;;;;;;;;;;;;;;20.67;59.14;100788.75;5090516;28;1429;-22
2023/07/24 09:37:40;;;;;;;;;;;;;;;20.65;59.53;100786.19;5075914;28;1398;-22
2023/07/24 09:40:06;;;;;;;;;;;;;;;21.27;62.19;100778.94;5086226;28;1324;-24
2023/07/24 09:42:32;;;;;;;;;;;;;;;24.64;50.07;100781.69;5095630;28;995;-22
2023/07/24 09:44:57;;;;;;;;;;;;;;;21.67;55.97;100779.69;5095253;28;1358;-21
2023/07/24 09:47:23;;;;;;;;;;;;;;;20.71;57.19;100779.47;5090975;28;1289;-25
2023/07/24 09:49:48;;;;;;;;;;;;;;;20.36;58.03;100762.97;5094583;28;1109;-22
2023/07/24 09:52:14;;;;;;;;;;;;;;;20.49;58.82;100765.38;5080808;28;1902;-21
2023/07/24 09:54:45;;;;;;;;;;;;;;;20.48;59.47;100768.19;5093969;28;1336;-24
2023/07/24 09:57:10;;;;;;;;;;;;;;;20.55;59.70;100758.66;5095291;28;1169;-22
2023/07/24 09:59:36;;;;;;;;;;;;;;;20.56;59.88;100768.34;5093688;28;1035;-22
2023/07/24 10:02:01;;;;;;;;;;;;;;;21.01;62.13;100758.97;5082113;28;1093;-22
2023/07/24 10:04:27;;;;;;;;;;;;;;;24.18;51.03;100764.06;5086368;28;1127;-24
2023/07/24 10:06:52;;;;;;;;;;;;;;;21.55;56.62;100754.94;5075795;28;1092;-22
2023/07/24 10:09:21;;;;;;;;;;;;;;;21.26;57.29;100750.50;5083282;28;949;-21
2023/07/24 10:11:46;;;;;;;;;;;;;;;21.57;55.77;100746.78;5095872;28;1894;-22
2023/07/24 10:14:12;;;;;;;;;;;;;;;21.56;55.76;100742.38;5095820;28;1073;-22
2023/07/24 10:16:38;;;;;;;;;;;;;;;21.43;56.24;100735.53;5089442;28;1336;-22
2023/07/24 10:19:12;;;;;;;;;;;;;;;21.45;57.13;100746.09;5082412;28;1181;-22
2023/07/24 10:21:37;;;;;;;;;;;;;;;24.21;50.54;100742.22;5095186;28;1081;-24
2023/07/24 10:24:03;;;;;;;;;;;;;;;22.67;52.68;100735.38;5086541;28;1174;-23
2023/07/24 10:26:28;;;;;;;;;;;;;;;21.73;53.19;100732.75;5089920;28;1054;-22
2023/07/24 10:28:54;;;;;;;;;;;;;;;21.36;52.90;100735.28;5087542;28;1108;-22
2023/07/24 10:31:20;;;;;;;;;;;;;;;21.52;53.62;100736.50;5090356;28;1968;-22
2023/07/24 10:33:45;;;;;;;;;;;;;;;21.24;55.00;100731.06;5087331;28;925;-21
2023/07/24 10:36:13;;;;;;;;;;;;;;;21.32;55.20;100725.81;5076971;28;1062;-23
2023/07/24 10:38:42;;;;;;;;;;;;;;;21.34;55.19;100731.03;5096103;28;1153;-21
2023/07/24 10:41:08;;;;;;;;;;;;;;;21.32;55.35;100728.50;5093673;28;1069;-23
2023/07/24 10:43:40;;;;;;;;;;;;;;;22.65;54.88;100725.81;5083858;28;1131;-21
2023/07/24 10:46:05;;;;;;;;;;;;;;;23.73;51.13;100714.00;5083759;28;1169;-22
2023/07/24 10:48:31;;;;;;;;;;;;;;;21.91;53.44;100719.47;5088945;28;1178;-23
2023/07/24 10:50:56;;;;;;;;;;;;;;;21.72;55.10;100720.38;5095850;28;1238;-23
2023/07/24 10:53:22;;;;;;;;;;;;;;;21.52;56.53;100707.88;5099625;28;1917;-23
2023/07/24 10:55:50;;;;;;;;;;;;;;;21.57;57.57;100706.63;5083128;28;1254;-22
2023/07/24 10:58:16;;;;;;;;;;;;;;;21.73;57.71;100695.28;5089071;28;861;-22
2023/07/24 11:00:42;;;;;;;;;;;;;;;21.65;58.40;100701.38;5086455;28;1229;-22
2023/07/24 11:03:11;;;;;;;;;;;;;;;22.98;57.77;100704.63;5100101;28;1090;-25
2023/07/24 11:05:40;;;;;;;;;;;;;;;24.23;54.07;100702.59;5095016;28;1074;-23
2023/07/24 11:08:24;;;;;;;;;;;;;;;22.15;56.14;100699.31;5079515;28;1102;-23
2023/07/24 11:10:53;;;;;;;;;;;;;;;21.75;56.09;100698.66;5080108;28;1312;-22
2023/07/24 11:13:19;;;;;;;;;;;;;;;21.50;57.31;100695.66;5078529;28;1992;-22
2023/07/24 11:15:45;;;;;;;;;;;;;;;21.55;56.92;100696.06;5097939;28;1204;-25
2023/07/24 11:18:11;;;;;;;;;;;;;;;21.44;57.33;100699.75;5099119;28;1421;-23
2023/07/24 11:20:50;;;;;;;;;;;;;;;21.55;56.80;100688.03;5084068;28;1442;-25
2023/07/24 11:23:15;;;;;;;;;;;;;;;21.41;60.73;100697.38;5089087;28;1469;-24
2023/07/24 11:25:41;;;;;;;;;;;;;;;24.36;50.60;100704.81;5078863;28;1355;-27
2023/07/24 11:28:07;;;;;;;;;;;;;;;22.34;54.63;100695.66;5087989;28;1224;-24
2023/07/24 11:30:32;;;;;;;;;;;;;;;21.59;55.77;100683.19;5084701;28;1374;-25
2023/07/24 11:33:02;;;;;;;;;;;;;;;21.16;56.59;100686.31;5095361;28;1914;-22
2023/07/24 11:35:27;;;;;;;;;;;;;;;21.15;56.28;100674.75;5083772;28;1054;-24
2023/07/24 11:37:53;;;;;;;;;;;;;;;21.26;56.55;100679.09;5077398;28;1059;-21
2023/07/24 11:40:19;;;;;;;;;;;;;;;21.28;56.70;100681.63;5078686;28;1068;-24
2023/07/24 11:42:47;;;;;;;;;;;;;;;22.36;57.62;100677.59;5078765;28;1105;-23
2023/07/24 11:45:12;;;;;;;;;;;;;;;24.58;50.26;100686.34;5086875;28;1034;-23
2023/07/24 11:47:42;;;;;;;;;;;;;;;21.86;55.14;100670.84;5096820;28;1085;-22
2023/07/24 11:50:07;;;;;;;;;;;;;;;21.37;55.59;100671.91;5077807;28;1095;-28
2023/07/24 11:52:39;;;;;;;;;;;;;;;21.31;55.56;100667.09;5078361;28;1902;-22
2023/07/24 11:55:05;;;;;;;;;;;;;;;21.31;55.35;100677.81;5078067;28;1090;-22
2023/07/24 11:57:31;;;;;;;;;;;;;;;21.12;55.78;100660.84;5077807;28;1110;-22
2023/07/24 11:59:59;;;;;;;;;;;;;;;21.55;59.74;100661.25;5087183;28;1007;-25
2023/07/24 12:02:28;;;;;;;;;;;;;;;24.41;49.69;100672.88;5082530;28;1188;-23
2023/07/24 12:04:54;;;;;;;;;;;;;;;22.00;53.66;100661.50;5077921;28;1105;-24
2023/07/24 12:07:20;;;;;;;;;;;;;;;21.45;55.20;100655.09;5089420;28;1166;-24
2023/07/24 12:09:52;;;;;;;;;;;;;;;21.31;55.01;100661.75;5089108;28;1162;-25
2023/07/24 12:12:18;;;;;;;;;;;;;;;21.21;55.09;100656.44;5092775;28;1913;-24
2023/07/24 12:14:43;;;;;;;;;;;;;;;20.98;55.73;100654.97;5090324;28;1154;-22
2023/07/24 12:17:12;;;;;;;;;;;;;;;21.83;54.03;100655.09;5083859;28;1209;-22
2023/07/24 12:19:38;;;;;;;;;;;;;;;24.44;47.21;100651.03;5090228;28;1119;-24
2023/07/24 12:22:04;;;;;;;;;;;;;;;25.45;45.11;100649.06;5093096;28;1137;-23
2023/07/24 12:24:29;;;;;;;;;;;;;;;26.06;43.25;100653.00;5077562;28;1351;-23
2023/07/24 12:26:55;;;;;;;;;;;;;;;26.45;42.83;100653.94;5092241;28;1271;-24
2023/07/24 12:29:20;;;;;;;;;;;;;;;26.87;41.84;100646.34;5097738;28;1062;-24
2023/07/24 12:31:46;;;;;;;;;;;;;;;27.17;41.09;100648.25;5084216;28;1887;-22
2023/07/24 12:34:11;;;;;;;;;;;;;;;27.34;40.96;100656.97;5083065;28;1220;-23
2023/07/24 12:36:37;;;;;;;;;;;;;;;27.49;40.27;100656.16;5088399;28;1172;-22
2023/07/24 12:39:02;;;;;;;;;;;;;;;27.16;41.22;100641.16;5097320;28;1193;-21
2023/07/24 12:41:28;;;;;;;;;;;;;;;26.94;41.55;100643.72;5098068;28;1126;-22